Portada
METAR-TAF:

METAR-TAF

Aeroports :

Plataforma petroliera

J6-a, Països Baixos

latitud: 53-49-27N, longitud: 2-56-43E, altitud: 34 m

Observació

L'informe es va fer fa 40 minuts, a les 16:55 UTC
Vent 25 kt del Sud-Oest
Temperatura 9°C
Humitat 87%
Pressió 1008 hPa
Visibilitat 10 km o més

METAR: EHJA 071655Z AUTO 22025KT 9999 SCT031/// SCT036/// 09/07 Q1008 W///H///

Hora: 18:35 (17:35 UTC)


TAF: manca

Observacions i pronòstics meteorològics de més de 4000 aeroports (METAR i TAF).

Les estacions disponibles són els punts grocs i vermells al mapa.

Posi el ratolí al punt desitjat per veure el nom de l'estació.

Feu clic per veure les observacions i els pronòstics meteorològics.

Per canviar el mapa: feu clic els botons verds amb una creu de color negre per apropar; al botó verd amb un guió per allunyar la imatge; o en les fletxes verdes per a mapes adjacents.


METAR-TAF: